Time;durP1;ratioP1;P1;durP2;ratioP2;P2;SDS_P1;SDS_P2;PMS_P1;PMS_P2;Temp;Humidity;BMP_temperature;BMP_pressure;BME280_temperature;BME280_humidity;BME280_pressure;Samples;Min_cycle;Max_cycle;Signal;HPM_P1;HPM_P2
2021/12/31 00:00:06;;;;;;;9.00;7.92;;;;;;;16.85;39.46;98792.30;1728834;81;20954;-69
2021/12/31 00:02:33;;;;;;;9.05;7.78;;;;;;;16.85;39.50;98780.73;1730458;81;21502;-69
2021/12/31 00:05:00;;;;;;;8.40;7.60;;;;;;;16.91;39.42;98780.66;1730734;81;20919;-69
2021/12/31 00:07:26;;;;;;;8.85;7.95;;;;;;;16.93;39.37;98789.83;1727440;81;20959;-69
2021/12/31 00:09:58;;;;;;;8.08;7.15;;;;;;;17.06;39.19;98772.17;1733612;81;21811;-68
2021/12/31 00:12:21;;;;;;;8.65;7.37;;;;;;;17.13;39.06;98767.52;1736496;81;37562;-69
2021/12/31 00:14:48;;;;;;;8.53;7.42;;;;;;;17.13;39.04;98772.38;1734761;81;21010;-68
2021/12/31 00:17:16;;;;;;;8.33;7.47;;;;;;;17.18;39.13;98773.05;1720729;81;21001;-68
2021/12/31 00:19:46;;;;;;;8.08;7.33;;;;;;;17.21;39.16;98787.35;1740188;81;20963;-68
2021/12/31 00:22:40;;;;;;;9.08;7.47;;;;;;;17.18;39.26;98784.59;1727672;81;21504;-69
2021/12/31 00:24:40;;;;;;;8.53;7.25;;;;;;;17.25;39.27;98780.48;1721006;81;21002;-68
2021/12/31 00:27:06;;;;;;;7.87;7.12;;;;;;;17.21;39.25;98774.73;1730091;81;21015;-68
2021/12/31 00:29:33;;;;;;;8.03;7.22;;;;;;;17.31;39.15;98777.41;1744292;80;20926;-68
2021/12/31 00:31:59;;;;;;;8.65;7.80;;;;;;;17.40;38.96;98778.18;1759299;80;20844;-71
2021/12/31 00:34:25;;;;;;;8.18;7.37;;;;;;;16.93;40.11;98787.14;1762067;78;21134;-68
2021/12/31 00:36:52;;;;;;;8.33;7.53;;;;;;;16.95;40.33;98780.48;1772180;78;20872;-68
2021/12/31 00:39:18;;;;;;;8.23;7.42;;;;;;;16.96;40.37;98779.97;1757034;78;20924;-68
2021/12/31 00:41:46;;;;;;;8.55;7.50;;;;;;;16.86;40.55;98771.12;1780968;79;21497;-68
2021/12/31 00:44:13;;;;;;;8.53;7.62;;;;;;;16.80;40.60;98773.88;1763125;78;21442;-68
2021/12/31 00:46:39;;;;;;;8.13;7.33;;;;;;;16.75;40.55;98764.34;1765064;78;21147;-69
2021/12/31 00:49:06;;;;;;;9.53;7.55;;;;;;;16.70;40.59;98765.55;1778980;80;21516;-69
2021/12/31 00:51:33;;;;;;;9.28;8.00;;;;;;;16.69;40.62;98776.81;1764163;78;21537;-68
2021/12/31 00:54:00;;;;;;;9.88;8.38;;;;;;;16.68;40.94;98773.84;1773389;78;20923;-68
2021/12/31 00:56:26;;;;;;;12.03;8.18;;;;;;;16.66;41.23;98771.37;1782912;78;21466;-68
2021/12/31 00:58:53;;;;;;;11.22;8.70;;;;;;;16.72;41.21;98780.39;1789723;79;21140;-68
2021/12/31 01:01:21;;;;;;;10.88;8.40;;;;;;;16.68;41.13;98785.11;1802081;79;20899;-68
2021/12/31 01:03:48;;;;;;;11.22;8.13;;;;;;;16.65;41.21;98779.66;1792059;79;20943;-68
2021/12/31 01:06:15;;;;;;;10.72;8.85;;;;;;;16.41;41.53;98789.41;1790573;79;21028;-68
2021/12/31 01:08:41;;;;;;;11.03;9.00;;;;;;;16.42;41.64;98778.98;1803876;79;20911;-69
2021/12/31 01:11:08;;;;;;;10.20;8.48;;;;;;;16.42;41.65;98775.48;1789216;79;21786;-68
2021/12/31 01:13:59;;;;;;;13.05;9.60;;;;;;;16.46;41.57;98784.19;1789569;79;21023;-69
2021/12/31 01:16:26;;;;;;;13.10;7.97;;;;;;;16.46;41.54;98790.08;1785044;79;20987;-69
2021/12/31 01:21:20;;;;;;;10.13;8.73;;;;;;;16.38;41.53;98794.40;1750595;80;20889;-68
2021/12/31 01:23:48;;;;;;;9.68;8.38;;;;;;;16.38;41.48;98798.42;1751617;81;21074;-69
2021/12/31 01:26:15;;;;;;;10.93;8.50;;;;;;;16.35;41.43;98788.13;1756199;80;21017;-68
2021/12/31 01:28:41;;;;;;;9.13;7.60;;;;;;;16.43;41.27;98797.23;1729447;80;21498;-68
2021/12/31 01:31:08;;;;;;;9.98;8.63;;;;;;;16.39;41.32;98782.11;1748773;81;21469;-69
2021/12/31 01:33:35;;;;;;;9.98;8.45;;;;;;;16.39;41.31;98783.45;1745516;81;21042;-68
2021/12/31 01:36:05;;;;;;;8.65;7.62;;;;;;;16.42;41.26;98784.88;1731928;81;20892;-68
2021/12/31 01:38:32;;;;;;;10.65;8.15;;;;;;;16.37;41.26;98781.49;1732754;81;20958;-68
2021/12/31 01:40:58;;;;;;;10.20;7.35;;;;;;;16.40;41.21;98776.23;1789176;79;20939;-68
2021/12/31 01:43:25;;;;;;;8.90;7.78;;;;;;;16.30;41.25;98774.56;1788438;79;20960;-68
2021/12/31 01:45:55;;;;;;;12.10;7.78;;;;;;;16.31;41.21;98773.53;1757127;80;20927;-69
2021/12/31 01:48:36;;;;;;;9.78;8.78;;;;;;;16.38;41.06;98782.32;1760513;81;21109;-69
2021/12/31 01:50:56;;;;;;;13.55;9.10;;;;;;;16.40;41.01;98781.59;1722113;80;21677;-70
2021/12/31 01:53:23;;;;;;;11.50;8.80;;;;;;;16.42;40.91;98772.80;1751976;81;21037;-68
2021/12/31 01:55:51;;;;;;;10.63;8.15;;;;;;;16.42;40.79;98765.56;1744730;80;20891;-68
2021/12/31 01:58:22;;;;;;;9.08;7.03;;;;;;;16.42;40.79;98773.62;1741810;80;20941;-69
2021/12/31 02:00:48;;;;;;;10.48;7.33;;;;;;;16.43;40.74;98779.78;1736380;82;21111;-69
2021/12/31 02:03:18;;;;;;;8.95;7.08;;;;;;;16.54;40.60;98790.64;1751469;81;20935;-69
2021/12/31 02:05:45;;;;;;;7.97;6.78;;;;;;;16.59;40.49;98787.27;1729541;80;20974;-68
2021/12/31 02:08:13;;;;;;;11.12;7.08;;;;;;;16.62;40.37;98793.53;1803090;79;21017;-69
2021/12/31 02:10:40;;;;;;;7.28;6.35;;;;;;;16.73;40.21;98790.62;1778913;79;21410;-69
2021/12/31 02:13:11;;;;;;;10.82;7.65;;;;;;;16.77;40.02;98788.59;1777007;79;21154;-69
2021/12/31 02:15:38;;;;;;;10.90;6.92;;;;;;;16.75;40.02;98787.17;1772796;79;21003;-68
2021/12/31 02:18:08;;;;;;;8.68;6.90;;;;;;;16.71;40.09;98786.00;1804409;79;21002;-68
2021/12/31 02:20:36;;;;;;;11.03;7.50;;;;;;;16.69;40.07;98782.18;1799644;79;21526;-68
2021/12/31 02:23:07;;;;;;;8.23;6.95;;;;;;;16.76;39.97;98776.73;1782517;79;20948;-69
2021/12/31 02:25:36;;;;;;;9.70;7.58;;;;;;;16.77;39.89;98775.67;1796431;79;21087;-69
2021/12/31 02:28:03;;;;;;;8.00;7.17;;;;;;;16.85;39.76;98779.39;1786999;79;21513;-69
2021/12/31 02:30:29;;;;;;;9.63;8.60;;;;;;;16.75;39.89;98779.94;1794730;79;21052;-70
2021/12/31 02:32:56;;;;;;;9.23;8.20;;;;;;;16.72;39.88;98780.39;1783678;79;20927;-69
2021/12/31 02:35:22;;;;;;;11.12;9.00;;;;;;;16.84;39.69;98776.43;1799394;79;21392;-70
2021/12/31 02:37:49;;;;;;;9.70;7.37;;;;;;;16.86;39.57;98767.09;1758514;80;21138;-69
2021/12/31 02:40:17;;;;;;;7.97;7.17;;;;;;;16.80;39.63;98771.20;1759572;80;20978;-68
2021/12/31 02:42:43;;;;;;;9.95;7.35;;;;;;;16.68;39.85;98773.84;1736454;80;21517;-68
2021/12/31 02:45:11;;;;;;;11.57;8.33;;;;;;;16.74;39.79;98772.13;1759826;80;20887;-68
2021/12/31 02:47:44;;;;;;;15.60;11.20;;;;;;;16.76;39.69;98766.82;1740121;80;20931;-68
2021/12/31 02:50:13;;;;;;;12.40;9.38;;;;;;;16.68;39.70;98755.05;1736433;81;21866;-68
2021/12/31 02:52:41;;;;;;;10.43;7.22;;;;;;;16.62;39.78;98751.40;1725380;82;20857;-68
2021/12/31 02:55:09;;;;;;;6.72;6.03;;;;;;;16.70;39.59;98739.52;1713830;82;21512;-69
2021/12/31 02:57:37;;;;;;;6.37;5.78;;;;;;;16.60;39.74;98734.70;1739460;81;21026;-68
2021/12/31 03:00:07;;;;;;;8.08;6.42;;;;;;;16.60;39.69;98738.73;1720534;81;21560;-68
2021/12/31 03:02:38;;;;;;;7.17;5.97;;;;;;;16.67;39.59;98739.97;1754183;81;21133;-70
2021/12/31 03:05:06;;;;;;;7.92;6.33;;;;;;;16.66;39.66;98741.00;1778839;80;20970;-68
2021/12/31 03:07:36;;;;;;;18.42;11.83;;;;;;;16.61;39.77;98743.03;1820734;78;21775;-70
2021/12/31 03:10:05;;;;;;;15.93;11.00;;;;;;;16.64;39.73;98746.61;1827457;78;21473;-69
2021/12/31 03:12:32;;;;;;;14.75;10.60;;;;;;;16.60;39.82;98756.70;1806120;78;20922;-69
2021/12/31 03:14:58;;;;;;;12.03;8.43;;;;;;;16.55;39.85;98757.38;1825506;78;21869;-70
2021/12/31 03:17:25;;;;;;;9.90;8.05;;;;;;;16.52;39.86;98757.83;1809753;78;20984;-70
2021/12/31 03:20:00;;;;;;;10.25;7.80;;;;;;;16.57;39.88;98761.17;1818557;78;21412;-68
2021/12/31 03:22:20;;;;;;;12.98;8.00;;;;;;;16.56;39.94;98750.13;1807058;78;21172;-70
2021/12/31 03:24:46;;;;;;;11.28;7.72;;;;;;;16.61;39.83;98744.37;1794416;78;20957;-68
2021/12/31 03:27:13;;;;;;;10.88;8.18;;;;;;;16.60;39.78;98737.38;1812544;78;21148;-69
2021/12/31 03:29:39;;;;;;;10.70;7.28;;;;;;;16.55;39.82;98741.79;1824616;78;20949;-70
2021/12/31 03:32:06;;;;;;;12.45;8.48;;;;;;;16.49;39.97;98748.02;1805883;78;21035;-69
2021/12/31 03:34:33;;;;;;;14.80;10.35;;;;;;;16.46;40.01;98743.09;1818900;78;21029;-69
2021/12/31 03:36:59;;;;;;;20.40;13.20;;;;;;;16.57;39.87;98748.57;1810633;78;20962;-69
2021/12/31 03:39:27;;;;;;;11.73;9.25;;;;;;;16.62;39.80;98749.23;1808942;78;21137;-69
2021/12/31 03:41:53;;;;;;;10.65;8.23;;;;;;;16.67;39.70;98745.34;1825592;78;20871;-68
2021/12/31 03:44:19;;;;;;;10.32;7.78;;;;;;;16.67;39.76;98748.02;1814998;78;20902;-69
2021/12/31 03:46:46;;;;;;;9.53;7.80;;;;;;;16.66;39.82;98752.57;1764477;80;21815;-69
2021/12/31 03:49:13;;;;;;;12.63;9.10;;;;;;;16.88;39.47;98755.59;1771485;80;21093;-69
2021/12/31 03:51:39;;;;;;;11.85;7.53;;;;;;;16.83;39.52;98747.92;1825008;78;21929;-69
2021/12/31 03:54:06;;;;;;;8.53;7.35;;;;;;;16.84;39.49;98739.62;1812487;78;20930;-69
2021/12/31 03:56:33;;;;;;;10.65;8.23;;;;;;;16.79;39.53;98742.17;1808657;78;21037;-69
2021/12/31 03:59:00;;;;;;;9.88;7.25;;;;;;;16.78;39.56;98741.06;1748505;80;21052;-69
2021/12/31 04:01:27;;;;;;;11.10;8.05;;;;;;;16.81;39.52;98743.30;1762642;81;20978;-70
2021/12/31 04:03:54;;;;;;;11.65;8.65;;;;;;;16.88;39.40;98731.41;1727430;80;21968;-69
2021/12/31 04:06:21;;;;;;;11.97;7.95;;;;;;;16.79;39.57;98727.95;1752050;81;21431;-68
2021/12/31 04:08:50;;;;;;;11.38;8.68;;;;;;;16.78;39.52;98723.61;1744660;80;21002;-69
2021/12/31 04:11:17;;;;;;;20.60;12.82;;;;;;;16.75;39.57;98720.85;1741132;80;20971;-69
2021/12/31 04:13:43;;;;;;;16.77;12.35;;;;;;;16.77;39.55;98722.78;1716754;82;20895;-69
2021/12/31 04:16:10;;;;;;;13.88;9.48;;;;;;;16.69;39.65;98723.09;1788196;79;21134;-69
2021/12/31 04:18:36;;;;;;;10.68;7.67;;;;;;;16.67;39.70;98719.83;1791691;79;21497;-69
2021/12/31 04:21:03;;;;;;;9.13;6.83;;;;;;;16.65;39.72;98730.81;1789130;79;20931;-69
2021/12/31 04:23:35;;;;;;;9.45;7.22;;;;;;;16.72;39.68;98734.73;1793327;79;21030;-72
2021/12/31 04:26:03;;;;;;;9.18;7.58;;;;;;;16.83;39.50;98731.28;1782972;79;20999;-69
2021/12/31 04:28:31;;;;;;;8.88;7.30;;;;;;;16.90;39.34;98713.71;1791546;79;21509;-68
2021/12/31 04:30:57;;;;;;;10.45;7.30;;;;;;;16.78;39.49;98710.18;1791351;79;20970;-70
2021/12/31 04:33:24;;;;;;;8.38;7.33;;;;;;;16.79;39.53;98714.52;1790054;79;20935;-69
2021/12/31 04:35:50;;;;;;;12.33;8.65;;;;;;;16.78;39.56;98715.55;1788623;79;20940;-69
2021/12/31 04:38:17;;;;;;;11.38;9.23;;;;;;;16.68;39.79;98725.51;1791567;79;21004;-69
2021/12/31 04:40:43;;;;;;;10.05;8.65;;;;;;;16.76;39.79;98725.19;1785139;79;21135;-69
2021/12/31 04:43:11;;;;;;;11.70;8.10;;;;;;;16.83;39.65;98723.22;1780725;79;20863;-68
2021/12/31 04:45:37;;;;;;;9.48;6.90;;;;;;;16.68;39.85;98714.22;1777333;79;21046;-69
2021/12/31 04:48:04;;;;;;;8.05;7.15;;;;;;;16.79;39.75;98718.55;1783239;79;20986;-69
2021/12/31 04:50:30;;;;;;;8.43;7.00;;;;;;;16.72;39.96;98716.45;1794821;79;21037;-69
2021/12/31 04:52:57;;;;;;;8.33;7.12;;;;;;;16.68;40.06;98716.62;1799565;79;21118;-68
2021/12/31 04:55:24;;;;;;;9.25;7.70;;;;;;;16.64;40.13;98717.59;1790460;79;20836;-69
2021/12/31 04:57:50;;;;;;;10.15;6.95;;;;;;;16.66;40.17;98723.55;1783926;79;21477;-69
2021/12/31 05:00:17;;;;;;;8.80;7.90;;;;;;;16.75;40.33;98718.17;1789179;79;20939;-69
2021/12/31 05:02:44;;;;;;;8.00;7.17;;;;;;;16.66;40.71;98711.47;1802415;79;21049;-68
2021/12/31 05:05:11;;;;;;;9.30;8.30;;;;;;;16.80;40.63;98712.93;1784015;79;21217;-69
2021/12/31 05:07:39;;;;;;;8.50;7.42;;;;;;;16.81;40.56;98717.27;1790335;79;20931;-69
2021/12/31 05:10:07;;;;;;;8.40;7.50;;;;;;;16.73;40.84;98722.13;1755868;80;20975;-70
2021/12/31 05:12:38;;;;;;;9.78;7.35;;;;;;;16.84;40.76;98719.47;1726945;82;21065;-70
2021/12/31 05:15:07;;;;;;;8.00;7.20;;;;;;;16.93;40.75;98716.77;1750807;81;21007;-69
2021/12/31 05:17:35;;;;;;;7.92;6.92;;;;;;;16.95;40.73;98715.19;1748452;81;21022;-69
2021/12/31 05:20:02;;;;;;;8.65;6.42;;;;;;;16.96;40.79;98723.03;1749369;81;22292;-68
2021/12/31 05:22:30;;;;;;;6.90;6.20;;;;;;;16.94;40.98;98727.83;1765357;81;20916;-69
2021/12/31 05:24:57;;;;;;;7.55;6.85;;;;;;;16.89;40.98;98728.21;1729278;80;20951;-69
2021/12/31 05:27:27;;;;;;;7.37;6.45;;;;;;;16.88;41.06;98727.91;1761399;80;20891;-68
2021/12/31 05:29:54;;;;;;;9.25;6.80;;;;;;;16.91;41.01;98722.08;1729953;82;21812;-68
2021/12/31 05:32:21;;;;;;;10.75;8.88;;;;;;;16.99;40.91;98732.50;1761315;81;21002;-69
2021/12/31 05:34:47;;;;;;;18.57;14.30;;;;;;;17.00;41.07;98720.17;1718616;80;21040;-69
2021/12/31 05:37:13;;;;;;;18.48;13.53;;;;;;;17.07;41.43;98714.72;1755611;81;20995;-68
2021/12/31 05:39:41;;;;;;;15.00;10.90;;;;;;;17.04;41.27;98722.70;1737097;82;20923;-65
2021/12/31 05:42:07;;;;;;;12.35;8.75;;;;;;;17.10;41.17;98723.11;1745092;81;21144;-65
2021/12/31 05:44:34;;;;;;;8.45;6.60;;;;;;;17.14;41.13;98720.80;1755121;81;21039;-66
2021/12/31 05:47:00;;;;;;;9.13;6.60;;;;;;;17.40;40.74;98727.62;1756020;81;21524;-66
2021/12/31 05:49:29;;;;;;;8.98;6.60;;;;;;;17.43;40.72;98726.64;1725014;82;20987;-66
2021/12/31 05:51:56;;;;;;;6.83;5.62;;;;;;;17.34;40.76;98727.22;1755581;81;20966;-67
2021/12/31 05:54:23;;;;;;;8.48;6.28;;;;;;;17.17;41.06;98729.23;1758736;81;21987;-68
2021/12/31 05:56:51;;;;;;;9.38;7.90;;;;;;;17.25;40.88;98735.62;1749613;80;20919;-68
2021/12/31 05:59:17;;;;;;;11.45;8.65;;;;;;;17.26;40.83;98740.44;1760043;81;21026;-66
2021/12/31 06:01:47;;;;;;;10.48;7.78;;;;;;;17.23;40.75;98735.00;1751337;81;21421;-66
2021/12/31 06:04:15;;;;;;;10.85;7.35;;;;;;;17.27;40.66;98730.00;1750130;80;20959;-66
2021/12/31 06:06:42;;;;;;;9.73;7.50;;;;;;;17.33;40.44;98734.98;1749558;81;21920;-64
2021/12/31 06:09:11;;;;;;;9.73;8.30;;;;;;;17.32;40.49;98729.30;1720166;82;20979;-66
2021/12/31 06:11:40;;;;;;;7.67;6.55;;;;;;;17.32;40.36;98729.30;1751649;80;20923;-65
2021/12/31 06:14:07;;;;;;;9.43;8.05;;;;;;;17.37;40.42;98732.11;1741024;81;21542;-66
2021/12/31 06:16:35;;;;;;;10.65;8.13;;;;;;;17.34;40.52;98732.59;1742018;81;21072;-67
2021/12/31 06:19:04;;;;;;;17.77;9.93;;;;;;;17.35;40.80;98733.70;1745385;81;21169;-66
2021/12/31 06:21:34;;;;;;;8.55;6.95;;;;;;;17.28;40.61;98732.99;1748311;81;21064;-68
2021/12/31 06:24:03;;;;;;;12.33;7.87;;;;;;;17.28;40.60;98734.34;1747776;81;20899;-66
2021/12/31 06:26:31;;;;;;;9.30;7.30;;;;;;;17.25;40.53;98732.11;1742556;81;21006;-66
2021/12/31 06:28:58;;;;;;;11.38;7.97;;;;;;;17.36;40.40;98729.97;1756160;81;20919;-68
2021/12/31 06:31:26;;;;;;;9.15;6.97;;;;;;;17.38;40.36;98731.07;1745559;81;20990;-66
2021/12/31 06:33:53;;;;;;;10.32;7.95;;;;;;;17.45;40.23;98735.80;1750765;81;20883;-66
2021/12/31 06:36:20;;;;;;;10.03;7.62;;;;;;;17.38;40.28;98734.58;1746865;81;21489;-66
2021/12/31 06:38:47;;;;;;;9.28;7.65;;;;;;;17.40;40.11;98745.09;1749222;81;20998;-68
2021/12/31 06:41:15;;;;;;;14.95;10.48;;;;;;;17.32;40.17;98745.42;1745981;81;20891;-67
2021/12/31 06:43:43;;;;;;;44.40;21.85;;;;;;;17.36;40.16;98737.21;1744636;81;21174;-68
2021/12/31 06:46:10;;;;;;;76.90;32.90;;;;;;;17.39;40.06;98732.17;1744194;81;20930;-67
2021/12/31 06:48:36;;;;;;;35.78;18.40;;;;;;;17.44;39.92;98744.39;1748701;81;21536;-67
2021/12/31 06:51:02;;;;;;;14.73;8.83;;;;;;;17.45;39.84;98746.56;1739494;81;20915;-69
2021/12/31 06:53:29;;;;;;;12.60;9.00;;;;;;;17.41;39.91;98754.81;1745751;81;20980;-68
2021/12/31 06:56:01;;;;;;;8.45;6.87;;;;;;;17.40;39.88;98753.98;1735975;81;21841;-69
2021/12/31 06:58:28;;;;;;;9.50;7.25;;;;;;;17.40;39.92;98754.50;1740051;81;21031;-66
2021/12/31 07:00:56;;;;;;;15.20;10.63;;;;;;;17.46;39.76;98751.72;1792942;79;21533;-68
2021/12/31 07:03:22;;;;;;;12.85;8.88;;;;;;;17.44;39.83;98758.38;1790738;79;20923;-68
2021/12/31 07:05:48;;;;;;;7.75;6.10;;;;;;;17.33;40.00;98753.28;1783400;79;21512;-68
2021/12/31 07:08:15;;;;;;;7.45;6.55;;;;;;;17.41;39.85;98749.43;1732700;82;21158;-67
2021/12/31 07:10:41;;;;;;;6.70;6.03;;;;;;;17.45;39.75;98737.15;1748925;81;20945;-67
2021/12/31 07:13:11;;;;;;;5.75;5.15;;;;;;;17.52;39.54;98741.91;1746404;81;21073;-66
2021/12/31 07:15:44;;;;;;;5.97;5.35;;;;;;;17.38;39.80;98739.96;1725287;80;21514;-70
2021/12/31 07:18:11;;;;;;;6.30;5.70;;;;;;;17.35;39.85;98730.19;1757087;81;21064;-65
2021/12/31 07:20:37;;;;;;;8.68;7.78;;;;;;;17.37;39.98;98739.66;1767890;79;21148;-67
2021/12/31 07:23:06;;;;;;;10.60;8.18;;;;;;;17.35;40.24;98730.19;1733973;82;20999;-68
2021/12/31 07:25:33;;;;;;;7.17;5.67;;;;;;;17.34;40.49;98737.42;1765309;81;20935;-68
2021/12/31 07:28:00;;;;;;;5.65;5.03;;;;;;;17.37;40.66;98737.48;1752197;80;20908;-67
2021/12/31 07:30:27;;;;;;;6.78;4.62;;;;;;;17.37;40.68;98742.34;1729990;80;20982;-67
2021/12/31 07:32:54;;;;;;;6.53;4.67;;;;;;;17.45;40.66;98746.56;1760460;81;21191;-67
2021/12/31 07:35:20;;;;;;;5.75;5.25;;;;;;;17.63;40.37;98740.59;1758806;81;20976;-69
2021/12/31 07:37:47;;;;;;;7.80;5.87;;;;;;;17.62;40.46;98743.01;1756795;81;20947;-71
2021/12/31 07:40:13;;;;;;;8.30;7.08;;;;;;;17.59;40.57;98737.27;1729690;80;20955;-66
2021/12/31 07:42:40;;;;;;;5.67;5.17;;;;;;;17.54;40.70;98735.80;1760600;80;21007;-65
2021/12/31 07:45:08;;;;;;;5.90;4.87;;;;;;;17.57;40.52;98740.17;1758522;81;21225;-67
2021/12/31 07:47:35;;;;;;;4.35;3.95;;;;;;;17.57;41.01;98735.34;1726663;82;20967;-66
2021/12/31 07:50:01;;;;;;;4.80;4.10;;;;;;;17.66;41.17;98737.45;1725753;80;21486;-66
2021/12/31 07:52:28;;;;;;;6.12;5.53;;;;;;;17.71;41.21;98740.25;1762674;81;20927;-70
2021/12/31 07:54:56;;;;;;;5.47;4.90;;;;;;;17.62;41.38;98743.01;1755067;81;21878;-66
2021/12/31 07:57:23;;;;;;;6.35;5.62;;;;;;;17.70;41.38;98751.25;1750962;80;21683;-68
2021/12/31 07:59:49;;;;;;;6.42;5.35;;;;;;;17.73;41.20;98750.77;1802002;78;20916;-66
2021/12/31 08:02:16;;;;;;;6.05;5.05;;;;;;;17.62;41.38;98751.59;1799833;79;20986;-66
2021/12/31 08:04:43;;;;;;;5.35;4.85;;;;;;;17.58;41.57;98757.95;1795367;78;20930;-68
2021/12/31 08:07:09;;;;;;;8.53;6.60;;;;;;;17.55;41.64;98744.97;1806843;78;20979;-70
2021/12/31 08:09:36;;;;;;;6.53;5.25;;;;;;;17.58;41.64;98744.51;1806507;78;21146;-66
2021/12/31 08:12:05;;;;;;;5.97;5.05;;;;;;;17.58;41.64;98742.34;1804307;78;21412;-65
2021/12/31 08:14:32;;;;;;;4.55;4.10;;;;;;;17.61;41.61;98741.36;1801011;79;21057;-67
2021/12/31 08:17:00;;;;;;;5.62;4.75;;;;;;;17.56;41.54;98745.27;1767878;80;20899;-68
2021/12/31 08:19:27;;;;;;;7.53;5.62;;;;;;;17.56;41.58;98752.52;1776129;80;20930;-68
2021/12/31 08:21:53;;;;;;;5.80;4.65;;;;;;;17.62;41.44;98752.94;1771169;80;21960;-66
2021/12/31 08:24:20;;;;;;;6.45;5.22;;;;;;;17.80;41.03;98748.80;1810945;78;20887;-64
2021/12/31 08:26:46;;;;;;;7.62;5.15;;;;;;;18.09;40.43;98747.03;1795232;78;21589;-69
2021/12/31 08:29:13;;;;;;;6.12;4.92;;;;;;;18.08;40.24;98748.89;1799708;78;20887;-66
2021/12/31 08:31:43;;;;;;;9.50;5.20;;;;;;;17.89;40.53;98754.93;1803815;79;20999;-67
2021/12/31 08:34:10;;;;;;;6.55;5.42;;;;;;;17.75;40.73;98751.37;1811076;78;21158;-68
2021/12/31 08:36:36;;;;;;;5.33;4.72;;;;;;;17.69;40.73;98750.95;1810699;78;21637;-67
2021/12/31 08:39:04;;;;;;;7.08;5.25;;;;;;;17.64;40.81;98748.14;1800352;79;21411;-66
2021/12/31 08:41:31;;;;;;;7.80;5.90;;;;;;;17.68;40.82;98747.95;1793147;78;21516;-67
2021/12/31 08:43:58;;;;;;;9.25;6.85;;;;;;;17.74;40.74;98756.45;1805390;78;20950;-68
2021/12/31 08:46:24;;;;;;;8.93;6.37;;;;;;;17.79;40.84;98753.35;1799262;78;21145;-67
2021/12/31 08:48:52;;;;;;;10.13;6.65;;;;;;;17.84;40.70;98746.74;1797632;78;20851;-67
2021/12/31 08:51:19;;;;;;;11.73;6.78;;;;;;;18.02;40.25;98743.10;1788401;79;20902;-68
2021/12/31 08:53:45;;;;;;;9.03;5.90;;;;;;;17.94;40.24;98748.83;1772499;80;21026;-65
2021/12/31 08:56:12;;;;;;;6.55;5.50;;;;;;;18.00;40.21;98752.46;1751540;80;21006;-68
2021/12/31 08:58:39;;;;;;;8.85;5.80;;;;;;;18.04;40.21;98751.75;1756958;80;21114;-68
2021/12/31 09:01:07;;;;;;;6.97;6.17;;;;;;;18.01;41.72;98748.20;1796130;78;20997;-69
2021/12/31 09:03:34;;;;;;;6.85;5.60;;;;;;;17.96;41.09;98746.75;1806697;78;20910;-69
2021/12/31 09:06:01;;;;;;;7.97;5.55;;;;;;;17.98;41.08;98746.50;1794036;79;21449;-68
2021/12/31 09:08:28;;;;;;;10.08;6.65;;;;;;;17.88;41.08;98746.55;1803734;78;20977;-68
2021/12/31 09:10:55;;;;;;;11.55;8.00;;;;;;;17.76;41.20;98743.58;1790583;79;21530;-69
2021/12/31 09:13:22;;;;;;;9.55;7.47;;;;;;;17.78;41.18;98740.94;1806643;78;20986;-64
2021/12/31 09:15:50;;;;;;;9.83;7.37;;;;;;;17.92;41.10;98730.77;1807837;78;20978;-68
2021/12/31 09:18:16;;;;;;;9.63;6.87;;;;;;;18.00;41.78;98730.94;1771126;80;21496;-66
2021/12/31 09:20:42;;;;;;;8.93;6.47;;;;;;;18.07;41.16;98728.41;1753520;80;20974;-67
2021/12/31 09:23:09;;;;;;;7.45;6.33;;;;;;;18.06;41.07;98732.17;1792639;78;21188;-65
2021/12/31 09:25:36;;;;;;;6.97;6.25;;;;;;;17.93;41.14;98735.11;1813014;78;20958;-67
2021/12/31 09:28:02;;;;;;;6.90;5.97;;;;;;;17.93;41.18;98739.14;1798094;79;21064;-66
2021/12/31 09:30:29;;;;;;;6.75;6.08;;;;;;;18.01;41.03;98736.63;1794706;78;20958;-65
2021/12/31 09:32:57;;;;;;;7.67;6.15;;;;;;;17.99;40.99;98735.49;1808970;78;21540;-68
2021/12/31 09:35:23;;;;;;;7.15;6.42;;;;;;;17.89;41.04;98738.78;1813291;78;21133;-67
2021/12/31 09:37:50;;;;;;;8.45;6.90;;;;;;;17.88;41.02;98730.96;1802549;79;21420;-68
2021/12/31 09:40:18;;;;;;;9.20;6.58;;;;;;;17.84;40.95;98735.98;1807574;78;21006;-67
2021/12/31 09:42:52;;;;;;;8.53;6.70;;;;;;;17.85;41.00;98735.46;1809933;78;21042;-65
2021/12/31 09:45:19;;;;;;;9.95;6.15;;;;;;;18.00;40.89;98729.06;1803363;78;20923;-68
2021/12/31 09:47:45;;;;;;;6.67;6.08;;;;;;;18.05;40.76;98726.48;1804174;79;21797;-69
2021/12/31 09:50:12;;;;;;;8.23;6.28;;;;;;;18.14;40.66;98724.26;1799527;78;22037;-67
2021/12/31 09:52:38;;;;;;;8.98;6.87;;;;;;;18.10;40.63;98713.14;1801332;78;21435;-67
2021/12/31 09:55:07;;;;;;;6.65;5.37;;;;;;;18.13;40.51;98709.98;1812207;79;20930;-67
2021/12/31 09:57:33;;;;;;;5.95;5.30;;;;;;;18.11;40.58;98715.30;1802961;78;20977;-69
2021/12/31 10:00:03;;;;;;;6.35;5.22;;;;;;;18.09;40.57;98708.83;1766038;80;22037;-66
2021/12/31 10:02:33;;;;;;;5.67;5.12;;;;;;;18.05;40.61;98705.48;1765705;81;20943;-69
2021/12/31 10:05:03;;;;;;;4.78;4.35;;;;;;;18.02;40.63;98699.22;1728170;82;20892;-67
2021/12/31 10:07:33;;;;;;;6.10;4.58;;;;;;;18.31;40.10;98701.73;1754612;81;21038;-68
2021/12/31 10:10:10;;;;;;;5.25;4.75;;;;;;;18.18;40.37;98702.00;1758886;80;21038;-68
2021/12/31 10:12:56;;;;;;;6.40;5.03;;;;;;;18.11;40.52;98701.33;1756482;80;21139;-67
2021/12/31 10:15:24;;;;;;;6.10;5.50;;;;;;;18.09;40.48;98701.27;1755132;80;21518;-67
2021/12/31 10:17:51;;;;;;;7.72;6.95;;;;;;;18.06;40.64;98695.02;1761947;81;21501;-68
2021/12/31 10:20:19;;;;;;;14.50;13.08;;;;;;;18.13;40.61;98699.73;1759930;81;20983;-69
2021/12/31 10:22:46;;;;;;;12.15;10.95;;;;;;;18.21;40.51;98696.67;1733644;82;21581;-69
2021/12/31 10:25:20;;;;;;;11.25;9.50;;;;;;;18.29;40.38;98694.44;1763313;81;21096;-69
2021/12/31 10:27:52;;;;;;;6.58;5.90;;;;;;;18.46;40.87;98680.49;1753133;80;21465;-64
2021/12/31 10:30:23;;;;;;;7.35;5.22;;;;;;;18.64;40.36;98673.33;1747769;80;20891;-67
2021/12/31 10:32:50;;;;;;;7.08;5.90;;;;;;;18.60;40.29;98674.85;1751324;81;21060;-67
2021/12/31 10:35:19;;;;;;;6.83;5.37;;;;;;;18.55;40.21;98672.06;1757255;81;21481;-68
2021/12/31 10:37:57;;;;;;;6.03;5.42;;;;;;;18.55;40.16;98669.38;1760163;80;21151;-67
2021/12/31 10:40:36;;;;;;;8.45;6.00;;;;;;;18.53;40.35;98680.92;1757159;81;20971;-69
2021/12/31 10:43:10;;;;;;;6.58;5.95;;;;;;;18.49;40.32;98673.84;1764591;81;21045;-67
2021/12/31 10:45:40;;;;;;;11.80;9.23;;;;;;;18.46;40.41;98667.03;1755654;81;21034;-67
2021/12/31 10:48:09;;;;;;;9.38;6.85;;;;;;;18.46;42.59;98672.94;1736779;81;20991;-65
2021/12/31 10:50:37;;;;;;;7.92;6.10;;;;;;;18.40;40.82;98664.49;1750507;81;21144;-64
2021/12/31 10:53:11;;;;;;;8.33;6.45;;;;;;;18.45;40.79;98661.38;1753413;81;20963;-66
2021/12/31 10:55:40;;;;;;;8.40;6.22;;;;;;;18.52;40.87;98666.63;1754870;81;20935;-69
2021/12/31 10:58:10;;;;;;;7.10;5.45;;;;;;;18.54;40.92;98656.98;1763031;80;20994;-70
2021/12/31 11:00:42;;;;;;;9.05;8.05;;;;;;;18.58;41.45;98661.64;1723531;81;20936;-65
2021/12/31 11:03:09;;;;;;;8.98;7.12;;;;;;;18.66;41.55;98657.73;1743014;81;21132;-66
2021/12/31 11:05:36;;;;;;;9.15;6.95;;;;;;;18.85;41.36;98657.83;1731954;81;20962;-64
2021/12/31 11:08:07;;;;;;;6.15;5.53;;;;;;;19.01;41.18;98663.73;1743247;81;21008;-64
2021/12/31 11:10:37;;;;;;;8.03;5.87;;;;;;;18.97;41.20;98655.34;1747894;81;20967;-71
2021/12/31 11:13:14;;;;;;;7.83;4.83;;;;;;;18.94;41.12;98647.74;1739400;81;20943;-68
2021/12/31 11:15:43;;;;;;;6.00;5.40;;;;;;;18.96;41.03;98644.79;1753197;81;22042;-77
2021/12/31 11:18:11;;;;;;;19.12;14.03;;;;;;;18.98;40.96;98644.04;1747331;81;21007;-74
2021/12/31 11:20:40;;;;;;;10.95;8.18;;;;;;;19.11;41.67;98641.81;1734060;81;22177;-64
2021/12/31 11:23:07;;;;;;;5.85;5.22;;;;;;;19.39;41.38;98642.83;1739458;81;21077;-65
2021/12/31 11:25:35;;;;;;;6.47;5.33;;;;;;;19.42;40.84;98638.30;1742284;81;21057;-64
2021/12/31 11:28:02;;;;;;;5.83;4.55;;;;;;;18.40;42.21;98647.81;1730614;81;21076;-65
2021/12/31 11:30:43;;;;;;;6.53;5.25;;;;;;;18.06;42.67;98651.44;1733787;81;21555;-65
2021/12/31 11:33:10;;;;;;;6.00;4.70;;;;;;;17.82;43.17;98653.88;1744072;81;21516;-64